sensor_id;sensor_type;location;lat;lon;timestamp;P1;durP1;ratioP1;P2;durP2;ratioP2
5117;SDS011;2578;51.622;7.046;2023-04-16T00:01:37;30.83;;;15.07;;
5117;SDS011;2578;51.622;7.046;2023-04-16T00:04:03;36.43;;;18.50;;
5117;SDS011;2578;51.622;7.046;2023-04-16T00:06:29;45.00;;;23.13;;
5117;SDS011;2578;51.622;7.046;2023-04-16T00:08:54;49.77;;;25.13;;
5117;SDS011;2578;51.622;7.046;2023-04-16T00:11:20;51.33;;;18.60;;
5117;SDS011;2578;51.622;7.046;2023-04-16T00:13:46;47.97;;;20.43;;
5117;SDS011;2578;51.622;7.046;2023-04-16T00:16:11;37.30;;;15.43;;
5117;SDS011;2578;51.622;7.046;2023-04-16T00:18:37;20.70;;;10.50;;
5117;SDS011;2578;51.622;7.046;2023-04-16T00:21:03;39.83;;;18.47;;
5117;SDS011;2578;51.622;7.046;2023-04-16T00:23:29;24.83;;;14.87;;
5117;SDS011;2578;51.622;7.046;2023-04-16T00:25:55;38.47;;;19.67;;
5117;SDS011;2578;51.622;7.046;2023-04-16T00:28:23;30.43;;;13.43;;
5117;SDS011;2578;51.622;7.046;2023-04-16T00:30:49;36.70;;;16.43;;
5117;SDS011;2578;51.622;7.046;2023-04-16T00:33:15;31.10;;;12.13;;
5117;SDS011;2578;51.622;7.046;2023-04-16T00:35:41;28.27;;;13.47;;
5117;SDS011;2578;51.622;7.046;2023-04-16T00:38:10;22.93;;;13.20;;
5117;SDS011;2578;51.622;7.046;2023-04-16T00:40:35;33.93;;;16.03;;
5117;SDS011;2578;51.622;7.046;2023-04-16T00:43:01;34.53;;;16.27;;
5117;SDS011;2578;51.622;7.046;2023-04-16T00:45:27;32.13;;;15.43;;
5117;SDS011;2578;51.622;7.046;2023-04-16T00:47:53;25.90;;;16.07;;
5117;SDS011;2578;51.622;7.046;2023-04-16T00:50:19;20.97;;;12.03;;
5117;SDS011;2578;51.622;7.046;2023-04-16T00:52:46;58.80;;;25.73;;
5117;SDS011;2578;51.622;7.046;2023-04-16T00:55:13;35.30;;;15.30;;
5117;SDS011;2578;51.622;7.046;2023-04-16T00:57:41;35.73;;;17.03;;
5117;SDS011;2578;51.622;7.046;2023-04-16T01:00:08;21.63;;;10.97;;
5117;SDS011;2578;51.622;7.046;2023-04-16T01:02:34;29.43;;;16.37;;
5117;SDS011;2578;51.622;7.046;2023-04-16T01:05:01;30.43;;;16.47;;
5117;SDS011;2578;51.622;7.046;2023-04-16T01:07:27;32.60;;;15.13;;
5117;SDS011;2578;51.622;7.046;2023-04-16T01:09:53;32.80;;;18.67;;
5117;SDS011;2578;51.622;7.046;2023-04-16T01:12:18;36.87;;;17.00;;
5117;SDS011;2578;51.622;7.046;2023-04-16T01:14:44;17.30;;;12.17;;
5117;SDS011;2578;51.622;7.046;2023-04-16T01:17:10;28.17;;;14.07;;
5117;SDS011;2578;51.622;7.046;2023-04-16T01:19:36;34.70;;;14.70;;
5117;SDS011;2578;51.622;7.046;2023-04-16T01:22:02;47.00;;;19.83;;
5117;SDS011;2578;51.622;7.046;2023-04-16T01:24:29;13.83;;;10.30;;
5117;SDS011;2578;51.622;7.046;2023-04-16T01:26:56;32.30;;;14.53;;
5117;SDS011;2578;51.622;7.046;2023-04-16T01:29:22;28.93;;;13.47;;
5117;SDS011;2578;51.622;7.046;2023-04-16T01:31:48;35.00;;;15.20;;
5117;SDS011;2578;51.622;7.046;2023-04-16T01:34:14;39.37;;;16.90;;
5117;SDS011;2578;51.622;7.046;2023-04-16T01:36:39;18.77;;;11.87;;
5117;SDS011;2578;51.622;7.046;2023-04-16T01:39:05;25.53;;;15.30;;
5117;SDS011;2578;51.622;7.046;2023-04-16T01:41:31;35.97;;;17.13;;
5117;SDS011;2578;51.622;7.046;2023-04-16T01:43:56;45.87;;;19.90;;
5117;SDS011;2578;51.622;7.046;2023-04-16T01:46:23;28.47;;;13.37;;
5117;SDS011;2578;51.622;7.046;2023-04-16T01:48:53;8.63;;;7.73;;
5117;SDS011;2578;51.622;7.046;2023-04-16T01:51:19;26.70;;;12.50;;
5117;SDS011;2578;51.622;7.046;2023-04-16T01:53:45;13.20;;;8.33;;
5117;SDS011;2578;51.622;7.046;2023-04-16T01:56:11;32.37;;;14.67;;
5117;SDS011;2578;51.622;7.046;2023-04-16T01:58:37;40.80;;;17.60;;
5117;SDS011;2578;51.622;7.046;2023-04-16T02:01:03;34.03;;;16.60;;
5117;SDS011;2578;51.622;7.046;2023-04-16T02:03:30;12.40;;;9.20;;
5117;SDS011;2578;51.622;7.046;2023-04-16T02:05:56;30.13;;;15.00;;
5117;SDS011;2578;51.622;7.046;2023-04-16T02:08:21;51.67;;;20.47;;
5117;SDS011;2578;51.622;7.046;2023-04-16T02:10:50;16.33;;;11.10;;
5117;SDS011;2578;51.622;7.046;2023-04-16T02:13:16;41.80;;;16.77;;
5117;SDS011;2578;51.622;7.046;2023-04-16T02:15:48;18.67;;;10.50;;
5117;SDS011;2578;51.622;7.046;2023-04-16T02:18:14;9.97;;;8.97;;
5117;SDS011;2578;51.622;7.046;2023-04-16T02:20:44;25.33;;;16.60;;
5117;SDS011;2578;51.622;7.046;2023-04-16T02:23:11;21.00;;;12.20;;
5117;SDS011;2578;51.622;7.046;2023-04-16T02:25:42;16.37;;;12.33;;
5117;SDS011;2578;51.622;7.046;2023-04-16T02:28:13;19.03;;;10.53;;
5117;SDS011;2578;51.622;7.046;2023-04-16T02:30:40;26.33;;;15.77;;
5117;SDS011;2578;51.622;7.046;2023-04-16T02:33:08;22.67;;;10.93;;
5117;SDS011;2578;51.622;7.046;2023-04-16T02:35:35;27.53;;;17.20;;
5117;SDS011;2578;51.622;7.046;2023-04-16T02:38:02;28.93;;;14.93;;
5117;SDS011;2578;51.622;7.046;2023-04-16T02:40:28;37.67;;;17.40;;
5117;SDS011;2578;51.622;7.046;2023-04-16T02:42:54;31.73;;;15.80;;
5117;SDS011;2578;51.622;7.046;2023-04-16T02:45:20;19.30;;;12.00;;
5117;SDS011;2578;51.622;7.046;2023-04-16T02:47:46;20.30;;;14.67;;
5117;SDS011;2578;51.622;7.046;2023-04-16T02:50:13;25.27;;;15.03;;
5117;SDS011;2578;51.622;7.046;2023-04-16T02:52:38;31.20;;;16.17;;
5117;SDS011;2578;51.622;7.046;2023-04-16T02:55:04;32.80;;;16.87;;
5117;SDS011;2578;51.622;7.046;2023-04-16T02:57:30;47.83;;;18.40;;
5117;SDS011;2578;51.622;7.046;2023-04-16T02:59:56;39.20;;;15.80;;
5117;SDS011;2578;51.622;7.046;2023-04-16T03:02:22;28.07;;;15.73;;
5117;SDS011;2578;51.622;7.046;2023-04-16T03:04:47;11.00;;;9.87;;
5117;SDS011;2578;51.622;7.046;2023-04-16T03:07:13;23.03;;;13.13;;
5117;SDS011;2578;51.622;7.046;2023-04-16T03:09:39;17.13;;;11.43;;
5117;SDS011;2578;51.622;7.046;2023-04-16T03:12:04;20.10;;;12.70;;
5117;SDS011;2578;51.622;7.046;2023-04-16T03:14:30;24.83;;;14.13;;
5117;SDS011;2578;51.622;7.046;2023-04-16T03:16:56;12.57;;;11.27;;
5117;SDS011;2578;51.622;7.046;2023-04-16T03:19:22;31.77;;;14.60;;
5117;SDS011;2578;51.622;7.046;2023-04-16T03:21:48;25.17;;;11.53;;
5117;SDS011;2578;51.622;7.046;2023-04-16T03:24:14;15.60;;;12.30;;
5117;SDS011;2578;51.622;7.046;2023-04-16T03:26:39;18.33;;;13.87;;
5117;SDS011;2578;51.622;7.046;2023-04-16T03:29:05;10.60;;;9.70;;
5117;SDS011;2578;51.622;7.046;2023-04-16T03:31:31;9.77;;;8.87;;
5117;SDS011;2578;51.622;7.046;2023-04-16T03:33:57;47.23;;;19.17;;
5117;SDS011;2578;51.622;7.046;2023-04-16T03:36:22;32.87;;;16.27;;
5117;SDS011;2578;51.622;7.046;2023-04-16T03:38:48;12.00;;;9.97;;
5117;SDS011;2578;51.622;7.046;2023-04-16T03:41:13;48.13;;;18.60;;
5117;SDS011;2578;51.622;7.046;2023-04-16T03:43:39;24.23;;;13.67;;
5117;SDS011;2578;51.622;7.046;2023-04-16T03:46:05;25.30;;;13.00;;
5117;SDS011;2578;51.622;7.046;2023-04-16T03:48:31;15.43;;;13.83;;
5117;SDS011;2578;51.622;7.046;2023-04-16T03:50:56;14.13;;;12.93;;
5117;SDS011;2578;51.622;7.046;2023-04-16T03:53:22;28.87;;;17.40;;
5117;SDS011;2578;51.622;7.046;2023-04-16T03:55:48;78.63;;;27.00;;
5117;SDS011;2578;51.622;7.046;2023-04-16T03:58:18;31.50;;;15.17;;
5117;SDS011;2578;51.622;7.046;2023-04-16T04:00:44;65.93;;;23.43;;
5117;SDS011;2578;51.622;7.046;2023-04-16T04:03:10;40.40;;;15.37;;
5117;SDS011;2578;51.622;7.046;2023-04-16T04:05:37;13.10;;;9.90;;
5117;SDS011;2578;51.622;7.046;2023-04-16T04:08:04;17.80;;;11.97;;
5117;SDS011;2578;51.622;7.046;2023-04-16T04:10:33;25.53;;;15.00;;
5117;SDS011;2578;51.622;7.046;2023-04-16T04:13:02;22.50;;;12.50;;
5117;SDS011;2578;51.622;7.046;2023-04-16T04:15:30;71.03;;;22.67;;
5117;SDS011;2578;51.622;7.046;2023-04-16T04:17:56;61.10;;;18.60;;
5117;SDS011;2578;51.622;7.046;2023-04-16T04:20:22;24.83;;;18.20;;
5117;SDS011;2578;51.622;7.046;2023-04-16T04:22:48;22.83;;;15.87;;
5117;SDS011;2578;51.622;7.046;2023-04-16T04:25:15;23.10;;;13.17;;
5117;SDS011;2578;51.622;7.046;2023-04-16T04:27:41;36.00;;;13.63;;
5117;SDS011;2578;51.622;7.046;2023-04-16T04:30:07;57.60;;;20.13;;
5117;SDS011;2578;51.622;7.046;2023-04-16T04:32:33;16.07;;;13.00;;
5117;SDS011;2578;51.622;7.046;2023-04-16T04:35:00;23.83;;;12.93;;
5117;SDS011;2578;51.622;7.046;2023-04-16T04:37:26;16.33;;;12.83;;
5117;SDS011;2578;51.622;7.046;2023-04-16T04:39:52;27.37;;;15.67;;
5117;SDS011;2578;51.622;7.046;2023-04-16T04:42:18;47.37;;;19.50;;
5117;SDS011;2578;51.622;7.046;2023-04-16T04:44:45;52.20;;;20.47;;
5117;SDS011;2578;51.622;7.046;2023-04-16T04:47:11;57.23;;;22.77;;
5117;SDS011;2578;51.622;7.046;2023-04-16T04:49:37;57.33;;;16.37;;
5117;SDS011;2578;51.622;7.046;2023-04-16T04:52:02;58.77;;;19.83;;
5117;SDS011;2578;51.622;7.046;2023-04-16T04:54:29;60.20;;;27.07;;
5117;SDS011;2578;51.622;7.046;2023-04-16T04:56:55;60.37;;;22.53;;
5117;SDS011;2578;51.622;7.046;2023-04-16T04:59:21;71.73;;;31.43;;
5117;SDS011;2578;51.622;7.046;2023-04-16T05:01:47;77.67;;;30.97;;
5117;SDS011;2578;51.622;7.046;2023-04-16T05:04:13;23.87;;;15.93;;
5117;SDS011;2578;51.622;7.046;2023-04-16T05:06:39;68.80;;;23.73;;
5117;SDS011;2578;51.622;7.046;2023-04-16T05:09:04;53.10;;;22.50;;
5117;SDS011;2578;51.622;7.046;2023-04-16T05:11:32;55.27;;;23.20;;
5117;SDS011;2578;51.622;7.046;2023-04-16T05:13:58;64.43;;;26.73;;
5117;SDS011;2578;51.622;7.046;2023-04-16T05:16:23;31.57;;;16.33;;
5117;SDS011;2578;51.622;7.046;2023-04-16T05:18:49;24.40;;;15.13;;
5117;SDS011;2578;51.622;7.046;2023-04-16T05:21:14;57.27;;;26.30;;
5117;SDS011;2578;51.622;7.046;2023-04-16T05:23:40;54.67;;;24.70;;
5117;SDS011;2578;51.622;7.046;2023-04-16T05:26:06;44.70;;;25.07;;
5117;SDS011;2578;51.622;7.046;2023-04-16T05:28:31;40.37;;;18.67;;
5117;SDS011;2578;51.622;7.046;2023-04-16T05:30:57;73.07;;;32.07;;
5117;SDS011;2578;51.622;7.046;2023-04-16T05:33:23;60.37;;;29.27;;
5117;SDS011;2578;51.622;7.046;2023-04-16T05:35:48;60.53;;;25.07;;
5117;SDS011;2578;51.622;7.046;2023-04-16T05:38:14;29.97;;;20.17;;
5117;SDS011;2578;51.622;7.046;2023-04-16T05:40:40;58.40;;;31.67;;
5117;SDS011;2578;51.622;7.046;2023-04-16T05:43:05;53.17;;;28.90;;
5117;SDS011;2578;51.622;7.046;2023-04-16T05:45:31;31.73;;;20.77;;
5117;SDS011;2578;51.622;7.046;2023-04-16T05:47:57;24.57;;;18.73;;
5117;SDS011;2578;51.622;7.046;2023-04-16T05:50:23;69.70;;;29.97;;
5117;SDS011;2578;51.622;7.046;2023-04-16T05:52:49;36.73;;;20.70;;
5117;SDS011;2578;51.622;7.046;2023-04-16T05:55:14;48.33;;;27.83;;
5117;SDS011;2578;51.622;7.046;2023-04-16T05:57:40;24.10;;;18.97;;
5117;SDS011;2578;51.622;7.046;2023-04-16T06:00:06;51.97;;;27.00;;
5117;SDS011;2578;51.622;7.046;2023-04-16T06:02:32;36.77;;;18.17;;
5117;SDS011;2578;51.622;7.046;2023-04-16T06:04:58;20.70;;;15.27;;
5117;SDS011;2578;51.622;7.046;2023-04-16T06:07:23;56.57;;;26.63;;
5117;SDS011;2578;51.622;7.046;2023-04-16T06:09:49;24.60;;;20.07;;
5117;SDS011;2578;51.622;7.046;2023-04-16T06:12:14;41.20;;;26.37;;
5117;SDS011;2578;51.622;7.046;2023-04-16T06:14:40;43.17;;;20.63;;
5117;SDS011;2578;51.622;7.046;2023-04-16T06:17:05;35.50;;;22.77;;
5117;SDS011;2578;51.622;7.046;2023-04-16T06:19:31;46.67;;;22.27;;
5117;SDS011;2578;51.622;7.046;2023-04-16T06:21:57;47.33;;;22.00;;
5117;SDS011;2578;51.622;7.046;2023-04-16T06:24:22;46.33;;;27.73;;
5117;SDS011;2578;51.622;7.046;2023-04-16T06:26:48;41.90;;;25.07;;
5117;SDS011;2578;51.622;7.046;2023-04-16T06:29:13;27.37;;;19.03;;
5117;SDS011;2578;51.622;7.046;2023-04-16T06:31:39;39.60;;;21.10;;
5117;SDS011;2578;51.622;7.046;2023-04-16T06:34:05;32.30;;;20.13;;
5117;SDS011;2578;51.622;7.046;2023-04-16T06:36:31;45.93;;;23.50;;
5117;SDS011;2578;51.622;7.046;2023-04-16T06:38:56;63.87;;;27.33;;
5117;SDS011;2578;51.622;7.046;2023-04-16T06:41:22;45.37;;;28.13;;
5117;SDS011;2578;51.622;7.046;2023-04-16T06:43:49;53.00;;;27.17;;
5117;SDS011;2578;51.622;7.046;2023-04-16T06:46:15;29.77;;;20.27;;
5117;SDS011;2578;51.622;7.046;2023-04-16T06:48:41;48.00;;;25.97;;
5117;SDS011;2578;51.622;7.046;2023-04-16T06:51:06;47.97;;;29.43;;
5117;SDS011;2578;51.622;7.046;2023-04-16T06:53:32;31.83;;;22.30;;
5117;SDS011;2578;51.622;7.046;2023-04-16T06:55:58;53.00;;;30.47;;
5117;SDS011;2578;51.622;7.046;2023-04-16T06:58:24;22.33;;;16.83;;
5117;SDS011;2578;51.622;7.046;2023-04-16T07:00:50;24.57;;;16.80;;
5117;SDS011;2578;51.622;7.046;2023-04-16T07:03:15;18.97;;;16.83;;
5117;SDS011;2578;51.622;7.046;2023-04-16T07:05:41;45.20;;;23.33;;
5117;SDS011;2578;51.622;7.046;2023-04-16T07:08:06;29.00;;;19.40;;
5117;SDS011;2578;51.622;7.046;2023-04-16T07:10:32;42.57;;;22.70;;
5117;SDS011;2578;51.622;7.046;2023-04-16T07:12:57;23.03;;;16.70;;
5117;SDS011;2578;51.622;7.046;2023-04-16T07:15:25;27.43;;;18.83;;
5117;SDS011;2578;51.622;7.046;2023-04-16T07:17:51;45.60;;;23.80;;
5117;SDS011;2578;51.622;7.046;2023-04-16T07:20:16;33.77;;;20.80;;
5117;SDS011;2578;51.622;7.046;2023-04-16T07:22:42;11.83;;;11.03;;
5117;SDS011;2578;51.622;7.046;2023-04-16T07:25:08;38.03;;;22.80;;
5117;SDS011;2578;51.622;7.046;2023-04-16T07:27:33;21.00;;;14.50;;
5117;SDS011;2578;51.622;7.046;2023-04-16T07:29:59;23.33;;;15.20;;
5117;SDS011;2578;51.622;7.046;2023-04-16T07:32:25;11.20;;;10.30;;
5117;SDS011;2578;51.622;7.046;2023-04-16T07:34:51;24.47;;;15.57;;
5117;SDS011;2578;51.622;7.046;2023-04-16T07:37:16;30.70;;;20.43;;
5117;SDS011;2578;51.622;7.046;2023-04-16T07:39:42;17.50;;;15.17;;
5117;SDS011;2578;51.622;7.046;2023-04-16T07:42:08;11.40;;;10.60;;
5117;SDS011;2578;51.622;7.046;2023-04-16T07:44:33;38.43;;;17.60;;
5117;SDS011;2578;51.622;7.046;2023-04-16T07:46:59;24.73;;;13.10;;
5117;SDS011;2578;51.622;7.046;2023-04-16T07:49:25;19.23;;;13.70;;
5117;SDS011;2578;51.622;7.046;2023-04-16T07:51:50;10.00;;;9.00;;
5117;SDS011;2578;51.622;7.046;2023-04-16T07:54:16;11.20;;;10.47;;
5117;SDS011;2578;51.622;7.046;2023-04-16T07:56:41;11.50;;;10.40;;
5117;SDS011;2578;51.622;7.046;2023-04-16T07:59:07;33.63;;;18.67;;
5117;SDS011;2578;51.622;7.046;2023-04-16T08:01:32;14.37;;;10.47;;
5117;SDS011;2578;51.622;7.046;2023-04-16T08:03:58;28.80;;;17.20;;
5117;SDS011;2578;51.622;7.046;2023-04-16T08:06:24;22.53;;;12.23;;
5117;SDS011;2578;51.622;7.046;2023-04-16T08:08:50;26.00;;;14.67;;
5117;SDS011;2578;51.622;7.046;2023-04-16T08:11:16;13.50;;;8.87;;
5117;SDS011;2578;51.622;7.046;2023-04-16T08:13:41;82.53;;;15.67;;
5117;SDS011;2578;51.622;7.046;2023-04-16T08:16:07;14.00;;;8.67;;
5117;SDS011;2578;51.622;7.046;2023-04-16T08:18:33;19.27;;;12.47;;
5117;SDS011;2578;51.622;7.046;2023-04-16T08:20:58;30.03;;;17.43;;
5117;SDS011;2578;51.622;7.046;2023-04-16T08:23:24;13.20;;;9.80;;
5117;SDS011;2578;51.622;7.046;2023-04-16T08:25:50;22.63;;;10.27;;
5117;SDS011;2578;51.622;7.046;2023-04-16T08:28:15;23.33;;;9.70;;
5117;SDS011;2578;51.622;7.046;2023-04-16T08:30:41;27.53;;;13.80;;
5117;SDS011;2578;51.622;7.046;2023-04-16T08:33:06;12.00;;;9.20;;
5117;SDS011;2578;51.622;7.046;2023-04-16T08:35:32;15.57;;;9.60;;
5117;SDS011;2578;51.622;7.046;2023-04-16T08:41:20;27.17;;;15.13;;
5117;SDS011;2578;51.622;7.046;2023-04-16T08:43:47;17.67;;;9.47;;
5117;SDS011;2578;51.622;7.046;2023-04-16T08:46:15;6.67;;;6.07;;
5117;SDS011;2578;51.622;7.046;2023-04-16T08:48:41;7.53;;;6.80;;
5117;SDS011;2578;51.622;7.046;2023-04-16T08:51:13;19.40;;;11.63;;
5117;SDS011;2578;51.622;7.046;2023-04-16T08:53:42;11.73;;;9.53;;
5117;SDS011;2578;51.622;7.046;2023-04-16T08:56:23;5.97;;;5.37;;
5117;SDS011;2578;51.622;7.046;2023-04-16T08:58:50;11.07;;;8.40;;
5117;SDS011;2578;51.622;7.046;2023-04-16T09:01:18;7.67;;;7.07;;
5117;SDS011;2578;51.622;7.046;2023-04-16T09:03:48;10.93;;;8.60;;
5117;SDS011;2578;51.622;7.046;2023-04-16T09:06:14;14.93;;;8.43;;
5117;SDS011;2578;51.622;7.046;2023-04-16T09:08:42;5.00;;;4.60;;
5117;SDS011;2578;51.622;7.046;2023-04-16T09:11:09;9.30;;;8.47;;
5117;SDS011;2578;51.622;7.046;2023-04-16T09:13:37;9.73;;;8.17;;
5117;SDS011;2578;51.622;7.046;2023-04-16T09:16:02;13.57;;;10.60;;
5117;SDS011;2578;51.622;7.046;2023-04-16T09:18:29;19.00;;;13.97;;
5117;SDS011;2578;51.622;7.046;2023-04-16T09:20:55;12.53;;;7.33;;
5117;SDS011;2578;51.622;7.046;2023-04-16T09:23:21;15.03;;;9.07;;
5117;SDS011;2578;51.622;7.046;2023-04-16T09:25:47;15.60;;;12.10;;
5117;SDS011;2578;51.622;7.046;2023-04-16T09:28:36;16.93;;;9.67;;
5117;SDS011;2578;51.622;7.046;2023-04-16T09:31:16;20.03;;;10.60;;
5117;SDS011;2578;51.622;7.046;2023-04-16T09:33:43;25.07;;;12.13;;
5117;SDS011;2578;51.622;7.046;2023-04-16T09:36:32;3.87;;;3.57;;
5117;SDS011;2578;51.622;7.046;2023-04-16T09:38:58;9.00;;;7.00;;
5117;SDS011;2578;51.622;7.046;2023-04-16T09:41:25;6.97;;;6.47;;
5117;SDS011;2578;51.622;7.046;2023-04-16T09:43:58;6.60;;;6.20;;
5117;SDS011;2578;51.622;7.046;2023-04-16T09:48:56;8.73;;;7.07;;
5117;SDS011;2578;51.622;7.046;2023-04-16T09:51:22;20.97;;;10.27;;
5117;SDS011;2578;51.622;7.046;2023-04-16T09:53:50;21.10;;;12.10;;
5117;SDS011;2578;51.622;7.046;2023-04-16T09:56:18;37.63;;;16.20;;
5117;SDS011;2578;51.622;7.046;2023-04-16T09:58:49;11.50;;;7.87;;
5117;SDS011;2578;51.622;7.046;2023-04-16T10:01:20;20.30;;;10.43;;
5117;SDS011;2578;51.622;7.046;2023-04-16T10:03:47;5.80;;;5.40;;
5117;SDS011;2578;51.622;7.046;2023-04-16T10:06:15;13.03;;;8.97;;
5117;SDS011;2578;51.622;7.046;2023-04-16T10:11:15;5.70;;;5.20;;
5117;SDS011;2578;51.622;7.046;2023-04-16T10:13:42;20.67;;;13.03;;
5117;SDS011;2578;51.622;7.046;2023-04-16T10:16:10;17.27;;;11.53;;
5117;SDS011;2578;51.622;7.046;2023-04-16T10:18:43;18.13;;;11.83;;
5117;SDS011;2578;51.622;7.046;2023-04-16T10:21:10;19.47;;;11.23;;
5117;SDS011;2578;51.622;7.046;2023-04-16T10:23:40;26.77;;;15.77;;
5117;SDS011;2578;51.622;7.046;2023-04-16T10:26:06;15.17;;;9.87;;
5117;SDS011;2578;51.622;7.046;2023-04-16T10:28:33;8.90;;;8.10;;
5117;SDS011;2578;51.622;7.046;2023-04-16T10:31:02;14.33;;;10.83;;
5117;SDS011;2578;51.622;7.046;2023-04-16T10:33:30;23.43;;;15.30;;
5117;SDS011;2578;51.622;7.046;2023-04-16T10:36:17;17.17;;;13.33;;
5117;SDS011;2578;51.622;7.046;2023-04-16T10:38:51;8.10;;;7.50;;
5117;SDS011;2578;51.622;7.046;2023-04-16T10:41:20;13.60;;;10.37;;
5117;SDS011;2578;51.622;7.046;2023-04-16T10:43:47;5.80;;;5.40;;
5117;SDS011;2578;51.622;7.046;2023-04-16T10:46:25;10.63;;;8.10;;
5117;SDS011;2578;51.622;7.046;2023-04-16T10:48:59;12.40;;;11.23;;
5117;SDS011;2578;51.622;7.046;2023-04-16T10:51:32;9.80;;;9.17;;
5117;SDS011;2578;51.622;7.046;2023-04-16T10:54:20;10.63;;;8.97;;
5117;SDS011;2578;51.622;7.046;2023-04-16T10:56:46;13.93;;;9.60;;
5117;SDS011;2578;51.622;7.046;2023-04-16T10:59:16;18.27;;;14.80;;
5117;SDS011;2578;51.622;7.046;2023-04-16T11:01:44;9.50;;;8.90;;
5117;SDS011;2578;51.622;7.046;2023-04-16T11:07:06;17.63;;;12.97;;
5117;SDS011;2578;51.622;7.046;2023-04-16T11:12:14;12.20;;;11.50;;
5117;SDS011;2578;51.622;7.046;2023-04-16T11:14:43;16.03;;;14.50;;
5117;SDS011;2578;51.622;7.046;2023-04-16T11:17:15;15.70;;;14.40;;
5117;SDS011;2578;51.622;7.046;2023-04-16T11:19:41;15.57;;;14.30;;
5117;SDS011;2578;51.622;7.046;2023-04-16T11:22:08;14.00;;;12.80;;
5117;SDS011;2578;51.622;7.046;2023-04-16T11:24:36;17.73;;;15.87;;
5117;SDS011;2578;51.622;7.046;2023-04-16T11:27:04;13.40;;;12.17;;
5117;SDS011;2578;51.622;7.046;2023-04-16T11:29:30;16.03;;;11.10;;
5117;SDS011;2578;51.622;7.046;2023-04-16T11:31:55;13.83;;;12.47;;
5117;SDS011;2578;51.622;7.046;2023-04-16T11:34:21;12.23;;;11.20;;
5117;SDS011;2578;51.622;7.046;2023-04-16T11:36:47;15.80;;;13.80;;
5117;SDS011;2578;51.622;7.046;2023-04-16T11:39:14;21.03;;;17.40;;
5117;SDS011;2578;51.622;7.046;2023-04-16T11:44:25;19.30;;;14.20;;
5117;SDS011;2578;51.622;7.046;2023-04-16T11:46:52;15.47;;;12.80;;
5117;SDS011;2578;51.622;7.046;2023-04-16T11:49:30;11.97;;;10.73;;
5117;SDS011;2578;51.622;7.046;2023-04-16T11:51:56;22.93;;;14.57;;
5117;SDS011;2578;51.622;7.046;2023-04-16T11:54:23;14.30;;;13.20;;
5117;SDS011;2578;51.622;7.046;2023-04-16T11:56:50;13.07;;;11.30;;
5117;SDS011;2578;51.622;7.046;2023-04-16T11:59:18;10.83;;;9.90;;
5117;SDS011;2578;51.622;7.046;2023-04-16T12:01:47;16.43;;;15.10;;
5117;SDS011;2578;51.622;7.046;2023-04-16T12:04:20;12.10;;;10.97;;
5117;SDS011;2578;51.622;7.046;2023-04-16T12:09:35;13.90;;;12.73;;
5117;SDS011;2578;51.622;7.046;2023-04-16T12:12:02;9.90;;;9.30;;
5117;SDS011;2578;51.622;7.046;2023-04-16T12:14:29;13.80;;;12.70;;
5117;SDS011;2578;51.622;7.046;2023-04-16T12:16:55;13.67;;;12.60;;
5117;SDS011;2578;51.622;7.046;2023-04-16T12:22:32;10.40;;;8.70;;
5117;SDS011;2578;51.622;7.046;2023-04-16T12:25:03;13.30;;;10.23;;
5117;SDS011;2578;51.622;7.046;2023-04-16T12:30:11;20.83;;;10.93;;
5117;SDS011;2578;51.622;7.046;2023-04-16T12:32:37;18.90;;;11.63;;
5117;SDS011;2578;51.622;7.046;2023-04-16T12:35:04;18.17;;;10.03;;
5117;SDS011;2578;51.622;7.046;2023-04-16T12:37:29;18.13;;;12.63;;
5117;SDS011;2578;51.622;7.046;2023-04-16T12:39:55;22.20;;;15.27;;
5117;SDS011;2578;51.622;7.046;2023-04-16T12:42:21;22.20;;;13.07;;
5117;SDS011;2578;51.622;7.046;2023-04-16T12:44:47;9.63;;;7.10;;
5117;SDS011;2578;51.622;7.046;2023-04-16T12:47:12;19.97;;;11.50;;
5117;SDS011;2578;51.622;7.046;2023-04-16T12:49:38;25.60;;;15.13;;
5117;SDS011;2578;51.622;7.046;2023-04-16T12:52:03;8.47;;;7.67;;
5117;SDS011;2578;51.622;7.046;2023-04-16T12:54:30;25.73;;;13.50;;
5117;SDS011;2578;51.622;7.046;2023-04-16T12:56:56;26.70;;;16.60;;
5117;SDS011;2578;51.622;7.046;2023-04-16T12:59:22;22.40;;;16.10;;
5117;SDS011;2578;51.622;7.046;2023-04-16T13:01:48;21.57;;;14.20;;
5117;SDS011;2578;51.622;7.046;2023-04-16T13:04:13;27.50;;;16.63;;
5117;SDS011;2578;51.622;7.046;2023-04-16T13:06:39;23.20;;;15.70;;
5117;SDS011;2578;51.622;7.046;2023-04-16T13:09:05;27.57;;;17.77;;
5117;SDS011;2578;51.622;7.046;2023-04-16T13:11:31;37.53;;;19.93;;
5117;SDS011;2578;51.622;7.046;2023-04-16T13:13:57;37.70;;;17.23;;
5117;SDS011;2578;51.622;7.046;2023-04-16T13:16:23;11.67;;;10.43;;
5117;SDS011;2578;51.622;7.046;2023-04-16T13:18:48;17.20;;;14.40;;
5117;SDS011;2578;51.622;7.046;2023-04-16T13:21:14;10.77;;;9.97;;
5117;SDS011;2578;51.622;7.046;2023-04-16T13:23:40;19.63;;;15.93;;
5117;SDS011;2578;51.622;7.046;2023-04-16T13:26:05;23.97;;;15.07;;
5117;SDS011;2578;51.622;7.046;2023-04-16T13:28:31;12.50;;;11.43;;
5117;SDS011;2578;51.622;7.046;2023-04-16T13:30:57;20.60;;;15.90;;
5117;SDS011;2578;51.622;7.046;2023-04-16T13:33:22;31.77;;;18.10;;
5117;SDS011;2578;51.622;7.046;2023-04-16T13:35:48;24.97;;;20.13;;
5117;SDS011;2578;51.622;7.046;2023-04-16T13:38:15;20.93;;;14.73;;
5117;SDS011;2578;51.622;7.046;2023-04-16T13:40:41;21.33;;;14.17;;
5117;SDS011;2578;51.622;7.046;2023-04-16T13:43:06;23.13;;;14.40;;
5117;SDS011;2578;51.622;7.046;2023-04-16T13:45:32;12.00;;;7.23;;
5117;SDS011;2578;51.622;7.046;2023-04-16T13:47:58;23.13;;;12.80;;
5117;SDS011;2578;51.622;7.046;2023-04-16T13:50:24;24.30;;;15.40;;
5117;SDS011;2578;51.622;7.046;2023-04-16T13:52:49;22.37;;;13.20;;
5117;SDS011;2578;51.622;7.046;2023-04-16T13:55:15;14.47;;;10.70;;
5117;SDS011;2578;51.622;7.046;2023-04-16T13:57:45;11.80;;;8.97;;
5117;SDS011;2578;51.622;7.046;2023-04-16T14:00:11;11.83;;;9.03;;
5117;SDS011;2578;51.622;7.046;2023-04-16T14:02:38;13.60;;;9.90;;
5117;SDS011;2578;51.622;7.046;2023-04-16T14:05:06;15.00;;;13.53;;
5117;SDS011;2578;51.622;7.046;2023-04-16T14:07:31;10.77;;;9.97;;
5117;SDS011;2578;51.622;7.046;2023-04-16T14:09:57;12.30;;;11.20;;
5117;SDS011;2578;51.622;7.046;2023-04-16T14:12:23;11.90;;;11.00;;
5117;SDS011;2578;51.622;7.046;2023-04-16T14:14:48;10.43;;;9.73;;
5117;SDS011;2578;51.622;7.046;2023-04-16T14:17:14;19.43;;;16.50;;
5117;SDS011;2578;51.622;7.046;2023-04-16T14:19:39;29.60;;;15.77;;
5117;SDS011;2578;51.622;7.046;2023-04-16T14:22:06;14.67;;;13.40;;
5117;SDS011;2578;51.622;7.046;2023-04-16T14:24:31;15.67;;;12.90;;
5117;SDS011;2578;51.622;7.046;2023-04-16T14:26:57;14.63;;;13.30;;
5117;SDS011;2578;51.622;7.046;2023-04-16T14:29:22;12.00;;;11.20;;
5117;SDS011;2578;51.622;7.046;2023-04-16T14:31:48;14.03;;;13.03;;
5117;SDS011;2578;51.622;7.046;2023-04-16T14:34:14;15.33;;;14.03;;
5117;SDS011;2578;51.622;7.046;2023-04-16T14:36:40;24.97;;;22.13;;
5117;SDS011;2578;51.622;7.046;2023-04-16T14:39:06;16.23;;;14.80;;
5117;SDS011;2578;51.622;7.046;2023-04-16T14:41:32;21.87;;;18.07;;
5117;SDS011;2578;51.622;7.046;2023-04-16T14:43:58;16.40;;;14.90;;
5117;SDS011;2578;51.622;7.046;2023-04-16T14:46:23;16.77;;;15.57;;
5117;SDS011;2578;51.622;7.046;2023-04-16T14:48:51;16.13;;;14.93;;
5117;SDS011;2578;51.622;7.046;2023-04-16T14:51:17;18.00;;;16.40;;
5117;SDS011;2578;51.622;7.046;2023-04-16T14:53:43;15.00;;;13.80;;
5117;SDS011;2578;51.622;7.046;2023-04-16T14:56:09;19.00;;;16.40;;
5117;SDS011;2578;51.622;7.046;2023-04-16T14:58:35;19.10;;;17.60;;
5117;SDS011;2578;51.622;7.046;2023-04-16T15:01:01;19.17;;;17.60;;
5117;SDS011;2578;51.622;7.046;2023-04-16T15:03:27;22.63;;;20.40;;
5117;SDS011;2578;51.622;7.046;2023-04-16T15:05:54;22.20;;;20.40;;
5117;SDS011;2578;51.622;7.046;2023-04-16T15:08:21;22.53;;;20.67;;
5117;SDS011;2578;51.622;7.046;2023-04-16T15:10:47;23.90;;;22.10;;
5117;SDS011;2578;51.622;7.046;2023-04-16T15:13:13;21.07;;;19.67;;